Terminal Aerodrome Forecast
Issued by NWS Lake Charles, LA

Home | Current Version | Previous Version | Text Only | Print | Product List | Glossary On
Versions: 1 2 3 4 5 6 7 8 9 10 11 12 13 14 15
000
FTUS44 KLCH 311100
TAFAEX
TAF
KAEX 311122Z 3112/0112 VRB04KT P6SM VCSH SCT040
     FM311600 12004KT P6SM VCTS SCT040CB BKN200
     FM311900 12006KT P6SM SCT030 BKN100
      TEMPO 3120/3124 3SM TSRA BKN030CB
     FM010200 VRB03KT P6SM VCSH SCT040=

USA.gov is the U.S. government's official web portal to all federal, state and local government web resources and services.